createdAt,value
2022-12-12T00:01:18.861Z,-1.10
2022-12-12T00:04:40.423Z,-1.10
2022-12-12T00:08:02.085Z,-1.10
2022-12-12T00:11:24.783Z,-1.10
2022-12-12T00:14:47.762Z,-1.10
2022-12-12T00:18:09.415Z,-1.20
2022-12-12T00:21:31.011Z,-1.20
2022-12-12T00:24:52.567Z,-1.30
2022-12-12T00:28:14.148Z,-1.30
2022-12-12T00:31:37.146Z,-1.40
2022-12-12T00:34:59.143Z,-1.50
2022-12-12T00:38:21.531Z,-1.50
2022-12-12T00:41:43.114Z,-1.60
2022-12-12T00:45:05.059Z,-1.60
2022-12-12T00:48:28.260Z,-1.70
2022-12-12T00:51:49.939Z,-1.80
2022-12-12T00:55:11.890Z,-1.80
2022-12-12T00:58:33.945Z,-1.80
2022-12-12T01:01:55.547Z,-1.80
2022-12-12T01:05:18.874Z,-1.90
2022-12-12T01:08:40.648Z,-1.90
2022-12-12T01:12:02.249Z,-1.80
2022-12-12T01:15:23.929Z,-1.80
2022-12-12T01:18:45.512Z,-1.80
2022-12-12T01:22:08.454Z,-1.70
2022-12-12T01:25:30.063Z,-1.70
2022-12-12T01:28:52.194Z,-1.70
2022-12-12T01:32:13.769Z,-1.70
2022-12-12T01:35:35.370Z,-1.70
2022-12-12T01:38:58.391Z,-1.80
2022-12-12T01:42:19.985Z,-1.80
2022-12-12T01:46:00.102Z,-1.90
2022-12-12T01:49:23.548Z,-2.00
2022-12-12T01:52:47.018Z,-2.10
2022-12-12T01:56:11.280Z,-2.20
2022-12-12T01:59:33.455Z,-2.30
2022-12-12T02:02:55.548Z,-2.40
2022-12-12T02:06:18.309Z,-2.50
2022-12-12T02:09:39.972Z,-2.60
2022-12-12T02:13:05.124Z,-2.70
2022-12-12T02:16:34.899Z,-2.70
2022-12-12T02:20:17.410Z,-2.80
2022-12-12T02:24:01.484Z,-2.80
2022-12-12T02:27:39.172Z,-2.90
2022-12-12T02:31:11.725Z,-3.00
2022-12-12T02:34:35.982Z,-3.10
2022-12-12T02:38:01.342Z,-3.10
2022-12-12T02:41:26.875Z,-3.20
2022-12-12T02:44:50.784Z,-3.20
2022-12-12T02:48:16.689Z,-3.20
2022-12-12T02:51:38.384Z,-3.30
2022-12-12T02:55:00.288Z,-3.30
2022-12-12T02:58:21.863Z,-3.40
2022-12-12T03:01:49.566Z,-3.40
2022-12-12T03:05:24.876Z,-3.40
2022-12-12T03:08:52.721Z,-3.50
2022-12-12T03:12:16.582Z,-3.50
2022-12-12T03:15:41.691Z,-3.60
2022-12-12T03:19:06.084Z,-3.60
2022-12-12T03:22:32.123Z,-3.70
2022-12-12T03:25:56.208Z,-3.70
2022-12-12T03:29:20.730Z,-3.80
2022-12-12T03:32:45.327Z,-3.80
2022-12-12T03:36:09.624Z,-3.80
2022-12-12T03:39:35.075Z,-3.90
2022-12-12T03:43:00.421Z,-3.90
2022-12-12T03:46:23.830Z,-3.90
2022-12-12T03:49:47.328Z,-4.00
2022-12-12T03:53:10.185Z,-4.00
2022-12-12T03:56:37.323Z,-4.00
2022-12-12T04:00:01.148Z,-4.00
2022-12-12T04:03:26.255Z,-4.10
2022-12-12T04:06:52.104Z,-4.10
2022-12-12T04:10:13.686Z,-4.20
2022-12-12T04:13:43.327Z,-4.20
2022-12-12T04:17:05.479Z,-4.30
2022-12-12T04:20:28.941Z,-4.30
2022-12-12T04:23:59.667Z,-4.30
2022-12-12T04:27:24.384Z,-4.20
2022-12-12T04:30:47.397Z,-4.20
2022-12-12T04:34:12.399Z,-4.00
2022-12-12T04:37:35.680Z,-4.00
2022-12-12T04:40:58.280Z,-3.90
2022-12-12T04:44:21.219Z,-3.80
2022-12-12T04:47:45.439Z,-3.70
2022-12-12T04:51:08.831Z,-3.70
2022-12-12T04:54:34.377Z,-3.60
2022-12-12T04:57:56.217Z,-3.60
2022-12-12T05:01:21.798Z,-3.60
2022-12-12T05:04:47.266Z,-3.60
2022-12-12T05:08:10.778Z,-3.70
2022-12-12T05:11:33.128Z,-3.70
2022-12-12T05:14:54.719Z,-3.80
2022-12-12T05:18:16.822Z,-3.90
2022-12-12T05:21:39.756Z,-3.90
2022-12-12T05:25:01.436Z,-3.80
2022-12-12T05:28:23.019Z,-3.80
2022-12-12T05:31:44.600Z,-3.80
2022-12-12T05:35:07.101Z,-3.80
2022-12-12T05:38:30.073Z,-3.70
2022-12-12T05:41:51.646Z,-3.70
2022-12-12T05:45:13.508Z,-3.60
2022-12-12T05:48:35.356Z,-3.60
2022-12-12T05:51:56.913Z,-3.70
2022-12-12T05:55:20.064Z,-3.70
2022-12-12T05:58:42.032Z,-3.70
2022-12-12T06:02:03.676Z,-3.80
2022-12-12T06:05:25.305Z,-3.80
2022-12-12T06:08:46.877Z,-3.80
2022-12-12T06:12:09.812Z,-3.70
2022-12-12T06:15:31.466Z,-3.70
2022-12-12T06:18:54.017Z,-3.60
2022-12-12T06:22:15.621Z,-3.70
2022-12-12T06:25:37.222Z,-3.70
2022-12-12T06:29:00.139Z,-3.60
2022-12-12T06:32:21.713Z,-3.70
2022-12-12T06:35:43.281Z,-3.70
2022-12-12T06:39:04.856Z,-3.70
2022-12-12T06:42:26.543Z,-3.60
2022-12-12T06:45:49.549Z,-3.60
2022-12-12T06:49:11.125Z,-3.60
2022-12-12T06:52:32.701Z,-3.60
2022-12-12T06:55:54.285Z,-3.60
2022-12-12T06:59:16.270Z,-3.50
2022-12-12T07:02:39.273Z,-3.50
2022-12-12T07:06:01.020Z,-3.40
2022-12-12T07:09:22.620Z,-3.50
2022-12-12T07:12:47.630Z,-3.40
2022-12-12T07:16:09.753Z,-3.40
2022-12-12T07:19:32.714Z,-3.40
2022-12-12T07:22:54.284Z,-3.40
2022-12-12T07:26:16.843Z,-3.50
2022-12-12T07:29:38.445Z,-3.40
2022-12-12T07:33:00.249Z,-3.40
2022-12-12T07:36:23.261Z,-3.40
2022-12-12T07:39:44.823Z,-3.30
2022-12-12T07:43:06.423Z,-3.30
2022-12-12T07:46:28.101Z,-3.30
2022-12-12T07:49:49.662Z,-3.30
2022-12-12T07:53:12.547Z,-3.20
2022-12-12T07:56:34.150Z,-3.10
2022-12-12T07:59:56.340Z,-3.10
2022-12-12T08:03:17.891Z,-3.10
2022-12-12T08:06:39.460Z,-3.00
2022-12-12T08:10:02.372Z,-3.00
2022-12-12T08:13:23.936Z,-3.00
2022-12-12T08:16:45.491Z,-2.90
2022-12-12T08:20:07.673Z,-2.80
2022-12-12T08:23:29.214Z,-2.70
2022-12-12T08:26:52.167Z,-2.60
2022-12-12T08:30:13.894Z,-2.50
2022-12-12T08:33:35.487Z,-2.40
2022-12-12T08:36:57.072Z,-2.40
2022-12-12T08:40:18.715Z,-2.30
2022-12-12T08:43:42.337Z,-2.30
2022-12-12T08:47:04.104Z,-2.20
2022-12-12T08:50:25.779Z,-2.10
2022-12-12T08:53:48.186Z,-2.00
2022-12-12T08:57:09.765Z,-1.90
2022-12-12T09:00:32.658Z,-1.90
2022-12-12T09:03:55.275Z,-1.90
2022-12-12T09:07:16.826Z,-1.70
2022-12-12T09:10:38.743Z,-1.80
2022-12-12T09:14:00.435Z,-1.70
2022-12-12T09:17:23.369Z,-1.70
2022-12-12T09:20:47.641Z,-1.60
2022-12-12T09:24:09.319Z,-1.50
2022-12-12T09:27:30.914Z,-1.50
2022-12-12T09:30:52.453Z,-1.50
2022-12-12T09:34:15.343Z,-1.60
2022-12-12T09:37:36.902Z,-1.40
2022-12-12T09:40:59.537Z,-1.30
2022-12-12T09:44:21.321Z,-1.30
2022-12-12T09:47:44.586Z,-1.10
2022-12-12T09:51:08.287Z,-1.10
2022-12-12T09:54:29.843Z,-1.10
2022-12-12T09:57:53.283Z,-1.00
2022-12-12T10:01:23.913Z,-0.90
2022-12-12T10:04:51.163Z,-0.80
2022-12-12T10:08:19.384Z,-0.60
2022-12-12T10:11:41.665Z,-0.50
2022-12-12T10:15:04.967Z,-0.60
2022-12-12T10:18:28.534Z,-0.50
2022-12-12T10:21:52.083Z,-0.50
2022-12-12T10:25:22.444Z,-0.40
2022-12-12T10:28:44.257Z,-0.40
2022-12-12T10:32:10.336Z,-0.40
2022-12-12T10:35:37.660Z,-0.30
2022-12-12T10:39:08.460Z,-0.10
2022-12-12T10:42:34.126Z,-0.20
2022-12-12T10:46:15.233Z,-0.40
2022-12-12T10:49:37.227Z,-0.50
2022-12-12T10:52:58.773Z,-0.40
2022-12-12T10:56:21.304Z,-0.40
2022-12-12T10:59:45.171Z,-0.40
2022-12-12T11:03:24.659Z,-0.50
2022-12-12T11:06:48.056Z,-0.50
2022-12-12T11:10:20.933Z,-0.50
2022-12-12T11:13:45.374Z,-0.50
2022-12-12T11:17:21.052Z,-0.60
2022-12-12T11:20:46.381Z,-0.50
2022-12-12T11:24:11.388Z,-0.50
2022-12-12T11:27:35.248Z,-0.50
2022-12-12T11:30:57.186Z,-0.50
2022-12-12T11:34:20.867Z,-0.50
2022-12-12T11:37:46.295Z,-0.50
2022-12-12T11:41:08.509Z,-0.40
2022-12-12T11:44:31.500Z,-0.50
2022-12-12T11:47:53.087Z,-0.50
2022-12-12T11:51:30.000Z,-0.40
2022-12-12T11:54:52.788Z,-0.40
2022-12-12T11:58:17.289Z,-0.40
2022-12-12T12:01:45.043Z,-0.40
2022-12-12T12:05:15.984Z,-0.40
2022-12-12T12:08:45.697Z,-0.30
2022-12-12T12:12:11.298Z,-0.30
2022-12-12T12:15:35.662Z,-0.20
2022-12-12T12:19:02.693Z,-0.10
2022-12-12T12:22:27.694Z,-0.10
2022-12-12T12:25:54.023Z,0.00
2022-12-12T12:29:22.847Z,0.00
2022-12-12T12:32:51.394Z,0.00
2022-12-12T12:36:20.875Z,0.00
2022-12-12T12:39:48.319Z,-0.20
2022-12-12T12:43:22.378Z,-0.20
2022-12-12T12:46:47.181Z,-0.20
2022-12-12T12:50:16.130Z,-0.20
2022-12-12T12:53:40.442Z,-0.20
2022-12-12T12:57:05.766Z,-0.10
2022-12-12T13:00:31.004Z,-0.10
2022-12-12T13:03:56.191Z,0.00
2022-12-12T13:07:21.533Z,0.00
2022-12-12T13:10:45.722Z,0.00
2022-12-12T13:14:14.420Z,0.00
2022-12-12T13:17:44.075Z,0.10
2022-12-12T13:21:08.082Z,0.10
2022-12-12T13:24:31.967Z,0.10
2022-12-12T13:27:55.026Z,0.10
2022-12-12T13:31:25.399Z,0.10
2022-12-12T13:34:50.179Z,0.10
2022-12-12T13:38:16.945Z,0.10
2022-12-12T13:41:53.725Z,0.00
2022-12-12T13:45:34.392Z,0.00
2022-12-12T13:48:56.762Z,0.00
2022-12-12T13:52:27.308Z,0.00
2022-12-12T13:55:48.883Z,0.00
2022-12-12T13:59:28.061Z,-0.10
2022-12-12T14:03:01.514Z,-0.10
2022-12-12T14:06:27.195Z,-0.10
2022-12-12T14:09:51.830Z,-0.20
2022-12-12T14:13:17.639Z,-0.20
2022-12-12T14:16:39.338Z,-0.20
2022-12-12T14:20:01.314Z,-0.20
2022-12-12T14:23:24.557Z,-0.30
2022-12-12T14:26:48.321Z,-0.30
2022-12-12T14:30:14.830Z,-0.40
2022-12-12T14:33:55.346Z,-0.40
2022-12-12T14:37:34.739Z,-0.40
2022-12-12T14:40:59.090Z,-0.50
2022-12-12T14:44:35.170Z,-0.50
2022-12-12T14:48:19.590Z,-0.60
2022-12-12T14:51:41.582Z,-0.60
2022-12-12T14:55:04.148Z,-0.70
2022-12-12T14:58:29.081Z,-0.80
2022-12-12T15:01:53.360Z,-0.80
2022-12-12T15:05:15.117Z,-0.90
2022-12-12T15:08:43.266Z,-1.00
2022-12-12T15:12:12.027Z,-1.10
2022-12-12T15:15:34.128Z,-1.10
2022-12-12T15:18:58.720Z,-1.20
2022-12-12T15:22:22.817Z,-1.30
2022-12-12T15:25:47.061Z,-1.40
2022-12-12T15:29:14.556Z,-1.60
2022-12-12T15:32:36.435Z,-1.80
2022-12-12T15:36:02.481Z,-1.80
2022-12-12T15:39:24.597Z,-1.90
2022-12-12T15:42:48.414Z,-2.00
2022-12-12T15:46:12.744Z,-2.00
2022-12-12T15:49:38.497Z,-2.00
2022-12-12T15:53:03.433Z,-2.10
2022-12-12T15:56:26.263Z,-2.20
2022-12-12T15:59:51.567Z,-2.20
2022-12-12T16:03:20.403Z,-2.30
2022-12-12T16:06:42.738Z,-2.30
2022-12-12T16:10:19.470Z,-2.30
2022-12-12T16:13:41.476Z,-2.20
2022-12-12T16:17:04.054Z,-2.20
2022-12-12T16:20:30.242Z,-2.30
2022-12-12T16:23:52.089Z,-2.30
2022-12-12T16:27:15.083Z,-2.40
2022-12-12T16:30:37.099Z,-2.60
2022-12-12T16:34:01.672Z,-2.60
2022-12-12T16:37:23.239Z,-2.70
2022-12-12T16:40:46.074Z,-2.70
2022-12-12T16:44:09.054Z,-2.80
2022-12-12T16:47:30.675Z,-2.80
2022-12-12T16:50:52.806Z,-2.80
2022-12-12T16:54:15.188Z,-2.80
2022-12-12T16:57:36.744Z,-2.80
2022-12-12T17:00:59.735Z,-2.80
2022-12-12T17:04:22.769Z,-2.90
2022-12-12T17:07:44.333Z,-2.90
2022-12-12T17:11:10.606Z,-3.00
2022-12-12T17:14:32.554Z,-3.00
2022-12-12T17:17:55.463Z,-3.00
2022-12-12T17:21:17.023Z,-3.10
2022-12-12T17:24:38.579Z,-3.20
2022-12-12T17:28:00.152Z,-3.20
2022-12-12T17:31:21.733Z,-3.20
2022-12-12T17:34:44.687Z,-3.30
2022-12-12T17:38:08.338Z,-3.40
2022-12-12T17:41:33.046Z,-3.40
2022-12-12T17:44:54.583Z,-3.50
2022-12-12T17:48:16.142Z,-3.60
2022-12-12T17:51:39.088Z,-3.60
2022-12-12T17:55:53.006Z,-3.60
2022-12-12T17:58:43.039Z,-3.60
2022-12-12T18:02:04.645Z,-3.60
2022-12-12T18:05:26.275Z,-3.70
2022-12-12T18:08:50.087Z,-3.70
2022-12-12T18:12:11.985Z,-3.80
2022-12-12T18:15:33.533Z,-3.80
2022-12-12T18:18:56.567Z,-3.90
2022-12-12T18:22:18.273Z,-3.90
2022-12-12T18:25:41.183Z,-3.90
2022-12-12T18:29:05.167Z,-3.90
2022-12-12T18:32:26.879Z,-3.90
2022-12-12T18:35:50.977Z,-3.90
2022-12-12T18:39:12.794Z,-3.90
2022-12-12T18:42:35.784Z,-4.00
2022-12-12T18:46:01.515Z,-4.00
2022-12-12T18:49:23.151Z,-4.10
2022-12-12T18:52:44.719Z,-4.20
2022-12-12T18:56:06.548Z,-4.20
2022-12-12T18:59:29.434Z,-4.20
2022-12-12T19:02:51.542Z,-4.30
2022-12-12T19:06:14.081Z,-4.20
2022-12-12T19:09:35.606Z,-4.10
2022-12-12T19:12:57.176Z,-4.10
2022-12-12T19:16:20.659Z,-4.00
2022-12-12T19:19:42.283Z,-4.10
2022-12-12T19:23:03.859Z,-4.10
2022-12-12T19:26:26.211Z,-4.30
2022-12-12T19:29:47.752Z,-4.20
2022-12-12T19:33:10.650Z,-4.30
2022-12-12T19:36:32.603Z,-4.30
2022-12-12T19:39:54.406Z,-4.40
2022-12-12T19:43:16.005Z,-4.50
2022-12-12T19:46:37.594Z,-4.50
2022-12-12T19:50:00.535Z,-4.50
2022-12-12T19:53:22.100Z,-4.50
2022-12-12T19:56:43.928Z,-4.50
2022-12-12T20:00:06.132Z,-4.50
2022-12-12T20:03:27.666Z,-4.50
2022-12-12T20:06:50.933Z,-4.60
2022-12-12T20:10:12.845Z,-4.70
2022-12-12T20:13:34.714Z,-4.80
2022-12-12T20:16:56.389Z,-4.80
2022-12-12T20:20:18.074Z,-4.90
2022-12-12T20:23:45.530Z,-4.90
2022-12-12T20:27:08.659Z,-4.90
2022-12-12T20:30:30.248Z,-4.90
2022-12-12T20:33:53.929Z,-5.00
2022-12-12T20:37:19.927Z,-5.00
2022-12-12T20:40:43.269Z,-5.10
2022-12-12T20:44:05.496Z,-5.10
2022-12-12T20:47:27.057Z,-5.10
2022-12-12T20:50:48.697Z,-5.10
2022-12-12T20:54:10.675Z,-5.20
2022-12-12T20:57:33.590Z,-5.20
2022-12-12T21:00:55.395Z,-5.20
2022-12-12T21:04:16.976Z,-5.30
2022-12-12T21:07:38.557Z,-5.30
2022-12-12T21:11:01.238Z,-5.30
2022-12-12T21:14:24.756Z,-5.30
2022-12-12T21:17:46.337Z,-5.30
2022-12-12T21:21:10.534Z,-5.40
2022-12-12T21:24:32.085Z,-5.40
2022-12-12T21:27:53.644Z,-5.40
2022-12-12T21:31:17.744Z,-5.40
2022-12-12T21:34:39.337Z,-5.40
2022-12-12T21:38:00.899Z,-5.40
2022-12-12T21:41:22.937Z,-5.40
2022-12-12T21:44:45.931Z,-5.40
2022-12-12T21:48:09.064Z,-5.50
2022-12-12T21:51:30.627Z,-5.50
2022-12-12T21:54:52.322Z,-5.50
2022-12-12T21:58:13.879Z,-5.60
2022-12-12T22:01:35.468Z,-5.60
2022-12-12T22:04:58.409Z,-5.60
2022-12-12T22:08:20.011Z,-5.70
2022-12-12T22:11:50.219Z,-5.70
2022-12-12T22:15:14.146Z,-5.60
2022-12-12T22:18:36.321Z,-5.60
2022-12-12T22:21:59.257Z,-5.50
2022-12-12T22:25:20.827Z,-5.50
2022-12-12T22:28:42.531Z,-5.50
2022-12-12T22:32:04.384Z,-5.60
2022-12-12T22:35:26.698Z,-5.60
2022-12-12T22:38:51.707Z,-5.70
2022-12-12T22:42:13.255Z,-5.70
2022-12-12T22:45:35.024Z,-5.80
2022-12-12T22:48:57.871Z,-5.80
2022-12-12T22:52:19.419Z,-5.90
2022-12-12T22:55:42.314Z,-5.90
2022-12-12T22:59:04.337Z,-6.00
2022-12-12T23:02:25.893Z,-6.00
2022-12-12T23:05:47.477Z,-6.00
2022-12-12T23:09:12.332Z,-6.10
2022-12-12T23:12:35.237Z,-6.10
2022-12-12T23:15:56.834Z,-6.10
2022-12-12T23:19:19.585Z,-6.10
2022-12-12T23:22:41.165Z,-6.00
2022-12-12T23:26:03.245Z,-6.00
2022-12-12T23:29:26.175Z,-6.00
2022-12-12T23:32:47.701Z,-6.10
2022-12-12T23:36:09.410Z,-6.10
2022-12-12T23:39:30.959Z,-6.20
2022-12-12T23:42:52.506Z,-6.20
2022-12-12T23:46:15.623Z,-6.10
2022-12-12T23:49:37.282Z,-6.10
2022-12-12T23:52:58.849Z,-6.00
2022-12-12T23:56:20.391Z,-6.00
2022-12-12T23:59:41.919Z,-6.00
